Time;durP1;ratioP1;P1;durP2;ratioP2;P2;SDS_P1;SDS_P2;PMS_P1;PMS_P2;Temp;Humidity;BMP_temperature;BMP_pressure;BME280_temperature;BME280_humidity;BME280_pressure;Samples;Min_cycle;Max_cycle;Signal;HPM_P1;HPM_P2
2023/09/07 00:00:49;;;;;;;16.23;12.75;;;20.50;82.80;;;;;;4939511;28;20031;-78
2023/09/07 00:03:14;;;;;;;15.30;13.50;;;20.50;82.70;;;;;;4945992;28;20050;-77
2023/09/07 00:05:40;;;;;;;17.65;14.85;;;20.50;82.70;;;;;;4944193;28;20070;-78
2023/09/07 00:08:06;;;;;;;15.98;13.40;;;20.50;82.70;;;;;;4948925;28;20058;-76
2023/09/07 00:10:35;;;;;;;13.35;11.95;;;20.40;82.70;;;;;;4943811;28;20557;-78
2023/09/07 00:13:02;;;;;;;15.45;12.93;;;20.30;82.90;;;;;;4941396;28;20882;-78
2023/09/07 00:15:28;;;;;;;15.18;13.52;;;20.30;82.90;;;;;;4941382;28;20041;-77
2023/09/07 00:17:54;;;;;;;14.88;13.25;;;20.30;82.60;;;;;;4942324;28;20123;-79
2023/09/07 00:20:21;;;;;;;14.80;12.90;;;20.30;82.50;;;;;;4944226;28;20110;-79
2023/09/07 00:22:47;;;;;;;15.15;12.82;;;20.20;82.60;;;;;;4938889;28;20031;-78
2023/09/07 00:25:13;;;;;;;15.88;12.13;;;20.10;82.80;;;;;;4946752;28;20049;-79
2023/09/07 00:27:39;;;;;;;12.93;11.63;;;20.10;82.80;;;;;;4943238;28;20139;-81
2023/09/07 00:30:06;;;;;;;16.73;12.52;;;20.10;82.90;;;;;;4953737;28;20115;-77
2023/09/07 00:32:36;;;;;;;14.95;12.27;;;20.10;82.90;;;;;;4942173;28;20097;-80
2023/09/07 00:35:02;;;;;;;13.82;12.35;;;20.00;83.00;;;;;;4949756;28;20654;-77
2023/09/07 00:37:28;;;;;;;13.68;12.15;;;20.00;82.90;;;;;;4936495;28;20134;-78
2023/09/07 00:39:53;;;;;;;13.65;12.15;;;19.90;83.00;;;;;;4945292;28;20058;-82
2023/09/07 00:42:19;;;;;;;14.50;12.95;;;19.80;83.30;;;;;;4944740;28;20060;-78
2023/09/07 00:44:45;;;;;;;15.90;14.30;;;19.80;83.40;;;;;;4942427;28;20458;-78
2023/09/07 00:47:11;;;;;;;15.43;13.27;;;19.70;83.60;;;;;;4942524;28;20031;-82
2023/09/07 00:49:37;;;;;;;15.25;13.57;;;19.60;83.90;;;;;;4938378;28;20042;-77
2023/09/07 00:52:05;;;;;;;15.18;13.55;;;19.60;84.10;;;;;;4940972;28;20044;-80
2023/09/07 00:54:31;;;;;;;15.65;12.55;;;19.60;84.20;;;;;;4943131;28;20157;-82
2023/09/07 00:56:57;;;;;;;17.60;15.30;;;19.60;84.20;;;;;;4942722;28;20031;-76
2023/09/07 00:59:23;;;;;;;18.02;15.95;;;19.60;84.30;;;;;;4943374;28;20030;-79
2023/09/07 01:01:49;;;;;;;17.30;15.48;;;19.60;84.20;;;;;;4942952;28;20039;-77
2023/09/07 01:04:15;;;;;;;19.95;16.05;;;19.50;84.30;;;;;;4940482;28;20031;-78
2023/09/07 01:06:56;;;;;;;18.40;15.50;;;19.60;84.20;;;;;;4941661;28;20031;-77
2023/09/07 01:09:26;;;;;;;17.90;15.48;;;19.50;84.20;;;;;;4942828;28;20070;-85
2023/09/07 01:11:52;;;;;;;18.52;16.63;;;19.50;84.20;;;;;;4946545;28;20837;-78
2023/09/07 01:14:18;;;;;;;23.73;17.67;;;19.50;84.00;;;;;;4935409;28;20778;-77
2023/09/07 01:16:44;;;;;;;18.42;16.52;;;19.50;84.00;;;;;;4949963;28;20030;-84
2023/09/07 01:19:11;;;;;;;20.95;17.48;;;19.50;84.10;;;;;;4958585;28;20031;-77
2023/09/07 01:21:38;;;;;;;19.77;17.67;;;19.50;84.20;;;;;;4963883;28;20023;-79
2023/09/07 01:24:09;;;;;;;21.77;19.48;;;19.50;84.20;;;;;;4966970;28;20118;-80
2023/09/07 01:26:39;;;;;;;19.92;17.70;;;19.50;84.40;;;;;;4961074;28;20088;-82
2023/09/07 01:29:08;;;;;;;23.10;19.80;;;19.40;84.30;;;;;;4961160;28;20486;-78
2023/09/07 01:31:38;;;;;;;21.42;19.15;;;19.40;84.40;;;;;;4960229;28;20039;-78
2023/09/07 01:34:04;;;;;;;22.75;19.92;;;19.40;84.50;;;;;;4958765;28;20087;-81
2023/09/07 01:36:30;;;;;;;22.13;19.83;;;19.40;84.50;;;;;;4965633;28;20482;-83
2023/09/07 01:38:56;;;;;;;21.23;19.02;;;19.30;84.60;;;;;;4966044;28;20618;-79
2023/09/07 01:41:22;;;;;;;22.52;19.90;;;19.30;84.60;;;;;;4962744;28;20038;-80
2023/09/07 01:43:48;;;;;;;22.33;19.05;;;19.30;84.70;;;;;;4960976;28;20104;-78
2023/09/07 01:46:13;;;;;;;20.60;18.38;;;19.20;84.60;;;;;;4958523;28;20035;-80
2023/09/07 01:48:39;;;;;;;20.70;18.50;;;19.20;84.70;;;;;;4957598;28;20525;-80
2023/09/07 01:51:05;;;;;;;20.45;18.45;;;19.10;84.70;;;;;;4963088;28;20038;-77
2023/09/07 01:53:30;;;;;;;21.75;19.42;;;19.10;84.80;;;;;;4963194;28;20405;-78
2023/09/07 01:55:56;;;;;;;20.67;18.52;;;19.10;84.70;;;;;;4962504;28;20113;-78
2023/09/07 01:58:23;;;;;;;22.20;19.42;;;19.10;84.80;;;;;;4977603;28;20027;-82
2023/09/07 02:00:49;;;;;;;23.00;20.60;;;19.10;84.90;;;;;;4980648;28;20038;-83
2023/09/07 02:03:15;;;;;;;21.20;18.70;;;19.00;84.90;;;;;;4977366;28;20088;-84
2023/09/07 02:05:41;;;;;;;21.52;19.25;;;19.00;85.10;;;;;;4969819;28;20123;-78
2023/09/07 02:08:06;;;;;;;23.20;20.80;;;19.00;85.20;;;;;;4963377;28;20027;-76
2023/09/07 02:10:33;;;;;;;21.52;19.33;;;19.00;85.30;;;;;;4964826;28;20023;-76
2023/09/07 02:12:59;;;;;;;21.15;18.85;;;19.00;85.30;;;;;;4965148;28;20047;-77
2023/09/07 02:15:25;;;;;;;21.92;19.52;;;18.90;85.40;;;;;;4965507;28;20031;-76
2023/09/07 02:17:52;;;;;;;24.42;21.83;;;18.80;85.50;;;;;;4962691;28;20031;-81
2023/09/07 02:20:20;;;;;;;20.98;18.83;;;18.80;85.50;;;;;;4964162;28;20372;-79
2023/09/07 02:22:46;;;;;;;22.67;19.55;;;18.80;85.60;;;;;;4957840;28;20046;-78
2023/09/07 02:25:11;;;;;;;21.50;19.20;;;18.80;85.60;;;;;;4963147;28;20143;-77
2023/09/07 02:27:37;;;;;;;22.45;20.05;;;18.80;85.40;;;;;;4963996;28;20130;-77
2023/09/07 02:30:04;;;;;;;22.80;20.35;;;18.80;85.40;;;;;;4963991;28;20388;-79
2023/09/07 02:32:31;;;;;;;23.35;20.85;;;18.70;85.60;;;;;;4963599;28;20045;-82
2023/09/07 02:34:57;;;;;;;23.60;20.98;;;18.60;85.80;;;;;;4965322;28;20042;-80
2023/09/07 02:37:23;;;;;;;22.48;20.08;;;18.60;85.90;;;;;;4962787;28;20038;-78
2023/09/07 02:39:49;;;;;;;25.45;21.10;;;18.60;86.00;;;;;;4962086;28;20026;-80
2023/09/07 02:42:14;;;;;;;23.30;20.48;;;18.60;86.10;;;;;;4963453;28;20569;-81
2023/09/07 02:44:40;;;;;;;25.35;21.60;;;18.60;86.20;;;;;;4953782;28;21472;-79
2023/09/07 02:47:06;;;;;;;24.17;21.73;;;18.50;86.30;;;;;;4963431;28;20035;-78
2023/09/07 02:49:31;;;;;;;24.70;21.42;;;18.40;86.40;;;;;;4962504;28;20022;-78
2023/09/07 02:51:57;;;;;;;24.45;21.45;;;18.40;86.60;;;;;;4956811;28;20646;-80
2023/09/07 02:54:25;;;;;;;22.77;20.38;;;18.30;86.80;;;;;;4957079;28;20080;-77
2023/09/07 02:56:51;;;;;;;26.73;22.30;;;18.30;86.90;;;;;;4961570;28;20031;-80
2023/09/07 02:59:17;;;;;;;27.42;22.65;;;18.30;87.10;;;;;;4966853;28;20031;-79
2023/09/07 03:01:42;;;;;;;27.60;22.05;;;18.30;87.20;;;;;;4962372;28;20672;-78
2023/09/07 03:04:08;;;;;;;24.30;21.80;;;18.30;87.20;;;;;;4949414;28;20034;-78
2023/09/07 03:06:34;;;;;;;23.60;21.13;;;18.30;87.20;;;;;;4948791;28;20039;-77
2023/09/07 03:08:59;;;;;;;24.55;21.88;;;18.20;87.30;;;;;;4955311;28;20536;-81
2023/09/07 03:11:25;;;;;;;24.80;22.20;;;18.10;87.30;;;;;;4963142;28;20579;-82
2023/09/07 03:13:52;;;;;;;23.05;20.55;;;18.20;87.40;;;;;;4952750;28;20039;-79
2023/09/07 03:16:18;;;;;;;22.17;19.88;;;18.20;87.30;;;;;;4960074;28;20029;-74
2023/09/07 03:18:43;;;;;;;23.77;21.15;;;18.20;87.30;;;;;;4959133;28;20175;-77
2023/09/07 03:21:10;;;;;;;24.55;21.95;;;18.20;87.30;;;;;;4964789;28;20055;-77
2023/09/07 03:23:36;;;;;;;24.02;21.50;;;18.10;87.40;;;;;;4950465;28;20044;-80
2023/09/07 03:26:01;;;;;;;24.38;20.95;;;18.20;87.40;;;;;;4945716;28;20031;-77
2023/09/07 03:28:27;;;;;;;23.23;20.90;;;18.10;87.40;;;;;;4941972;28;20539;-81
2023/09/07 03:30:56;;;;;;;24.63;22.00;;;18.10;87.40;;;;;;4946611;28;20114;-84
2023/09/07 03:33:22;;;;;;;22.60;19.52;;;18.10;87.30;;;;;;4949421;28;20073;-81
2023/09/07 03:35:51;;;;;;;23.48;20.98;;;18.10;87.40;;;;;;4947761;28;20051;-78
2023/09/07 03:38:17;;;;;;;22.20;19.80;;;18.10;87.40;;;;;;4944351;28;20158;-79
2023/09/07 03:40:43;;;;;;;22.95;20.52;;;18.10;87.40;;;;;;4953652;28;20113;-81
2023/09/07 03:43:09;;;;;;;23.73;20.60;;;18.10;87.30;;;;;;4942584;28;20046;-82
2023/09/07 03:45:34;;;;;;;22.00;19.55;;;18.10;87.30;;;;;;4955148;28;20113;-78
2023/09/07 03:48:00;;;;;;;21.23;18.80;;;18.10;87.30;;;;;;4940487;28;20158;-78
2023/09/07 03:50:26;;;;;;;25.48;20.15;;;18.10;87.30;;;;;;4942361;28;20094;-83
2023/09/07 03:52:51;;;;;;;30.15;21.48;;;18.00;87.20;;;;;;4950381;28;20031;-77
2023/09/07 03:55:17;;;;;;;23.85;19.95;;;18.00;87.10;;;;;;4951852;28;20089;-80
2023/09/07 03:57:43;;;;;;;23.67;20.55;;;17.90;87.20;;;;;;4943838;28;20039;-82
2023/09/07 04:00:09;;;;;;;23.70;21.15;;;17.90;87.20;;;;;;4942919;28;20035;-79
2023/09/07 04:02:35;;;;;;;26.90;20.77;;;17.90;87.00;;;;;;4944619;28;20056;-78
2023/09/07 04:05:05;;;;;;;24.70;19.65;;;17.90;87.10;;;;;;4966713;28;20027;-84
2023/09/07 04:07:31;;;;;;;27.92;23.08;;;17.90;87.10;;;;;;4955118;28;20185;-78
2023/09/07 04:09:56;;;;;;;26.55;23.02;;;17.80;87.40;;;;;;4946030;28;20035;-75
2023/09/07 04:12:22;;;;;;;23.85;21.20;;;17.80;87.60;;;;;;4943651;28;20040;-77
2023/09/07 04:14:48;;;;;;;24.63;21.92;;;17.70;87.80;;;;;;4943396;28;20168;-75
2023/09/07 04:17:13;;;;;;;29.40;23.42;;;17.70;87.90;;;;;;4943581;28;20027;-83
2023/09/07 04:19:39;;;;;;;26.02;22.15;;;17.70;88.00;;;;;;4945362;28;20121;-75
2023/09/07 04:22:05;;;;;;;26.45;22.58;;;17.60;88.00;;;;;;4936895;28;20036;-75
2023/09/07 04:24:30;;;;;;;26.92;23.33;;;17.60;88.10;;;;;;4942815;28;20035;-80
2023/09/07 04:27:00;;;;;;;24.17;21.52;;;17.60;88.10;;;;;;4946842;28;20127;-77
2023/09/07 04:29:26;;;;;;;27.20;23.77;;;17.60;88.20;;;;;;4945317;28;20077;-77
2023/09/07 04:31:52;;;;;;;25.88;23.10;;;17.50;88.20;;;;;;4943489;28;20040;-76
2023/09/07 04:34:18;;;;;;;24.48;21.98;;;17.50;88.20;;;;;;4943939;28;20042;-81
2023/09/07 04:36:43;;;;;;;26.73;23.15;;;17.50;88.30;;;;;;4943676;28;20030;-81
2023/09/07 04:39:10;;;;;;;25.95;22.42;;;17.50;88.30;;;;;;4943543;28;20149;-79
2023/09/07 04:41:36;;;;;;;25.73;22.40;;;17.40;88.30;;;;;;4940480;28;20024;-79
2023/09/07 04:44:01;;;;;;;28.73;21.08;;;17.40;88.40;;;;;;4938984;28;20058;-81
2023/09/07 04:46:27;;;;;;;26.55;22.45;;;17.40;88.40;;;;;;4941266;28;20127;-79
2023/09/07 04:48:53;;;;;;;25.63;20.23;;;17.40;88.50;;;;;;4955687;28;20039;-80
2023/09/07 04:51:20;;;;;;;23.20;20.75;;;17.40;88.50;;;;;;4956346;28;20022;-78
2023/09/07 04:53:46;;;;;;;24.58;21.98;;;17.40;88.60;;;;;;4959300;28;20050;-77
2023/09/07 04:56:13;;;;;;;22.52;19.85;;;17.40;88.50;;;;;;4959890;28;20031;-79
2023/09/07 04:58:38;;;;;;;22.67;20.27;;;17.40;88.40;;;;;;4965057;28;20506;-82
2023/09/07 05:01:09;;;;;;;23.48;20.55;;;17.40;88.30;;;;;;4967963;28;20030;-76
2023/09/07 05:03:36;;;;;;;20.50;18.38;;;17.40;88.20;;;;;;4955184;28;20438;-79
2023/09/07 05:06:03;;;;;;;23.75;20.67;;;17.40;88.10;;;;;;4958921;28;20019;-78
2023/09/07 05:08:29;;;;;;;24.65;19.25;;;17.40;88.00;;;;;;4956052;28;20060;-82
2023/09/07 05:10:56;;;;;;;25.25;20.95;;;17.40;87.80;;;;;;4957247;28;20704;-81
2023/09/07 05:13:22;;;;;;;26.75;20.38;;;17.40;87.80;;;;;;4952056;28;20047;-78
2023/09/07 05:15:49;;;;;;;25.13;21.70;;;17.40;87.80;;;;;;4964128;28;20035;-78
2023/09/07 05:18:15;;;;;;;24.48;20.48;;;17.30;87.90;;;;;;4959863;28;20057;-81
2023/09/07 05:20:41;;;;;;;26.08;20.58;;;17.30;87.90;;;;;;4957916;28;20480;-77
2023/09/07 05:23:06;;;;;;;29.48;21.20;;;17.30;87.90;;;;;;4955109;28;20120;-79
2023/09/07 05:25:32;;;;;;;26.63;20.38;;;17.40;87.90;;;;;;4955263;28;20105;-81
2023/09/07 05:27:58;;;;;;;26.50;21.55;;;17.40;87.70;;;;;;4955833;28;20058;-76
2023/09/07 05:30:23;;;;;;;23.08;20.10;;;17.40;87.70;;;;;;4956919;28;20084;-80
2023/09/07 05:32:49;;;;;;;24.88;21.30;;;17.40;87.60;;;;;;4957866;28;20035;-77
2023/09/07 05:35:16;;;;;;;23.42;20.88;;;17.50;87.60;;;;;;4956047;28;20385;-79
2023/09/07 05:37:42;;;;;;;25.13;20.73;;;17.50;87.50;;;;;;4964922;28;20042;-82
2023/09/07 05:40:08;;;;;;;23.77;20.83;;;17.50;87.50;;;;;;4962620;28;20755;-77
2023/09/07 05:42:34;;;;;;;23.70;19.38;;;17.50;87.50;;;;;;4961116;28;20122;-78
2023/09/07 05:45:00;;;;;;;20.70;18.10;;;17.60;87.40;;;;;;4963577;28;20101;-77
2023/09/07 05:47:26;;;;;;;24.02;20.60;;;17.60;87.40;;;;;;4962636;28;20039;-80
2023/09/07 05:49:52;;;;;;;23.80;21.27;;;17.60;87.30;;;;;;4961318;28;20030;-78
2023/09/07 05:52:17;;;;;;;24.25;19.92;;;17.60;87.20;;;;;;4962467;28;20327;-80
2023/09/07 05:54:43;;;;;;;24.40;20.67;;;17.70;87.10;;;;;;4978599;28;20035;-81
2023/09/07 05:57:09;;;;;;;22.60;19.08;;;17.70;87.00;;;;;;4961816;28;20113;-82
2023/09/07 05:59:34;;;;;;;25.08;19.10;;;17.70;87.00;;;;;;4961509;28;20023;-77
2023/09/07 06:02:00;;;;;;;28.55;20.77;;;17.80;86.90;;;;;;4966064;28;20676;-84
2023/09/07 06:04:26;;;;;;;26.00;19.08;;;17.80;86.70;;;;;;4964119;28;20560;-77
2023/09/07 06:06:52;;;;;;;40.80;21.75;;;17.80;86.80;;;;;;4964986;28;20115;-78
2023/09/07 06:09:17;;;;;;;36.10;19.98;;;17.90;86.70;;;;;;4959905;28;20504;-78
2023/09/07 06:11:43;;;;;;;46.58;22.15;;;17.90;86.50;;;;;;4960055;28;20631;-77
2023/09/07 06:14:08;;;;;;;54.78;22.05;;;18.00;86.40;;;;;;4960360;28;20038;-80
2023/09/07 06:16:35;;;;;;;48.88;21.35;;;18.00;86.20;;;;;;4960757;28;20441;-77
2023/09/07 06:19:00;;;;;;;36.22;18.92;;;18.00;86.00;;;;;;4988068;28;20678;-80
2023/09/07 06:21:26;;;;;;;48.30;20.45;;;18.10;86.10;;;;;;4972004;28;20038;-78
2023/09/07 06:23:52;;;;;;;35.92;18.75;;;18.10;85.90;;;;;;4978561;28;20038;-77
2023/09/07 06:26:19;;;;;;;37.28;20.75;;;18.20;85.80;;;;;;4957954;28;20140;-76
2023/09/07 06:28:44;;;;;;;28.13;19.40;;;18.20;85.70;;;;;;4964918;28;20204;-79
2023/09/07 06:31:10;;;;;;;33.20;19.40;;;18.30;85.70;;;;;;4967426;28;20061;-76
2023/09/07 06:33:35;;;;;;;28.75;20.65;;;18.30;85.60;;;;;;4961373;28;20024;-76
2023/09/07 06:36:02;;;;;;;23.90;21.38;;;18.40;85.70;;;;;;4949452;28;20466;-78
2023/09/07 06:38:28;;;;;;;26.38;17.98;;;18.40;85.70;;;;;;5026090;28;20052;-77
2023/09/07 06:40:53;;;;;;;24.17;19.80;;;18.50;85.50;;;;;;5054413;28;20033;-81
2023/09/07 06:43:19;;;;;;;23.55;20.00;;;18.60;85.50;;;;;;4984755;28;20053;-77
2023/09/07 06:45:45;;;;;;;23.92;19.63;;;18.60;85.30;;;;;;4966337;28;20420;-77
2023/09/07 06:48:12;;;;;;;22.40;19.08;;;18.70;85.20;;;;;;4968978;28;20524;-87
2023/09/07 06:50:38;;;;;;;25.50;18.67;;;18.80;85.20;;;;;;4966682;28;20737;-76
2023/09/07 06:53:03;;;;;;;21.25;18.92;;;19.00;84.90;;;;;;4962918;28;20050;-78
2023/09/07 06:55:30;;;;;;;20.77;17.73;;;19.10;84.70;;;;;;4966530;28;20037;-79
2023/09/07 06:57:55;;;;;;;20.35;18.23;;;19.30;84.10;;;;;;4965684;28;20062;-78
2023/09/07 07:00:21;;;;;;;21.25;17.13;;;19.50;83.70;;;;;;4957203;28;20152;-84
2023/09/07 07:02:47;;;;;;;21.63;17.27;;;19.60;83.30;;;;;;4960560;28;20097;-79
2023/09/07 07:05:13;;;;;;;20.33;16.83;;;19.80;82.70;;;;;;4965470;28;20027;-78
2023/09/07 07:07:39;;;;;;;20.05;16.35;;;20.00;82.80;;;;;;4955242;28;20047;-80
2023/09/07 07:10:06;;;;;;;22.13;17.00;;;20.10;82.10;;;;;;4945226;28;20500;-78
2023/09/07 07:12:34;;;;;;;20.10;16.10;;;20.40;81.50;;;;;;4947956;28;20035;-75
2023/09/07 07:15:01;;;;;;;17.58;15.32;;;20.50;80.30;;;;;;4946376;28;20486;-81
2023/09/07 07:17:27;;;;;;;19.90;15.32;;;20.60;79.80;;;;;;4965868;28;20485;-78
2023/09/07 07:19:53;;;;;;;16.88;14.35;;;20.70;79.10;;;;;;4958695;28;20034;-77
2023/09/07 07:22:19;;;;;;;25.55;15.70;;;20.80;78.70;;;;;;4960606;28;20365;-80
2023/09/07 07:24:44;;;;;;;17.60;15.20;;;21.00;78.20;;;;;;4963070;28;20033;-81
2023/09/07 07:27:10;;;;;;;18.13;14.75;;;21.10;78.10;;;;;;4980570;28;20055;-84
2023/09/07 07:29:37;;;;;;;16.23;14.52;;;21.30;77.60;;;;;;4983844;28;20031;-80
2023/09/07 07:32:03;;;;;;;15.70;14.05;;;21.50;77.50;;;;;;4985076;28;20042;-77
2023/09/07 07:34:29;;;;;;;15.88;14.05;;;21.60;77.40;;;;;;4968791;28;20544;-83
2023/09/07 07:36:55;;;;;;;17.38;13.70;;;21.90;76.60;;;;;;4966209;28;20155;-79
2023/09/07 07:39:21;;;;;;;16.75;13.50;;;22.00;75.80;;;;;;4957975;28;20493;-78
2023/09/07 07:41:47;;;;;;;15.55;13.80;;;22.20;75.40;;;;;;4968008;28;20026;-82
2023/09/07 07:44:12;;;;;;;16.60;14.20;;;22.30;74.80;;;;;;4966440;28;20503;-80
2023/09/07 07:46:38;;;;;;;17.52;13.32;;;22.40;74.80;;;;;;4973156;28;20034;-79
2023/09/07 07:49:04;;;;;;;16.70;13.63;;;22.60;74.60;;;;;;4967580;28;20034;-80
2023/09/07 07:51:30;;;;;;;15.10;13.27;;;22.80;73.50;;;;;;4960738;28;20814;-79
2023/09/07 07:53:56;;;;;;;15.80;12.82;;;23.00;73.40;;;;;;4965170;28;20089;-82
2023/09/07 07:56:23;;;;;;;16.88;12.65;;;23.10;72.40;;;;;;4962728;28;20039;-77
2023/09/07 07:58:49;;;;;;;15.35;12.02;;;23.30;71.80;;;;;;4962480;28;20135;-78
2023/09/07 08:01:17;;;;;;;13.98;12.05;;;23.50;71.30;;;;;;4964817;28;20027;-78
2023/09/07 08:03:43;;;;;;;15.77;12.52;;;23.60;70.90;;;;;;4963857;28;20129;-78
2023/09/07 08:06:10;;;;;;;13.75;10.77;;;23.70;70.40;;;;;;4959266;28;20061;-79
2023/09/07 08:08:37;;;;;;;13.57;11.30;;;23.80;69.60;;;;;;4966429;28;20035;-79
2023/09/07 08:11:05;;;;;;;13.77;10.88;;;23.90;69.10;;;;;;4960969;28;20031;-80
2023/09/07 08:13:35;;;;;;;14.10;10.82;;;24.10;69.10;;;;;;4950009;28;20070;-80
2023/09/07 08:16:04;;;;;;;13.60;10.45;;;24.10;68.00;;;;;;4952765;28;20023;-79
2023/09/07 08:18:32;;;;;;;13.73;10.60;;;24.30;67.80;;;;;;4950733;28;20771;-80
2023/09/07 08:20:58;;;;;;;12.15;9.52;;;24.40;66.80;;;;;;4959795;28;20031;-79
2023/09/07 08:23:24;;;;;;;10.88;9.00;;;24.60;67.70;;;;;;4930207;28;20042;-79
2023/09/07 08:25:52;;;;;;;15.45;8.88;;;24.80;66.20;;;;;;4931459;28;20031;-80
2023/09/07 08:28:18;;;;;;;13.50;8.98;;;24.90;65.00;;;;;;4954558;28;20046;-79
2023/09/07 08:30:44;;;;;;;10.52;8.63;;;25.00;65.00;;;;;;4958119;28;20055;-83
2023/09/07 08:33:10;;;;;;;11.35;7.90;;;25.10;64.70;;;;;;4951142;28;20034;-79
2023/09/07 08:35:43;;;;;;;10.32;7.68;;;25.10;63.20;;;;;;4951490;28;20042;-82
2023/09/07 08:38:13;;;;;;;11.52;7.38;;;25.30;64.70;;;;;;4957762;28;20038;-84
2023/09/07 08:40:40;;;;;;;10.55;7.75;;;25.40;62.50;;;;;;4960405;28;20062;-81
2023/09/07 08:43:11;;;;;;;12.57;7.80;;;25.50;62.00;;;;;;4957344;28;20099;-81
2023/09/07 08:45:47;;;;;;;9.88;7.43;;;25.60;62.60;;;;;;4957644;28;20030;-80
2023/09/07 08:48:15;;;;;;;9.82;7.55;;;25.80;62.30;;;;;;4948635;28;20069;-80
2023/09/07 08:50:42;;;;;;;10.18;7.47;;;26.00;62.00;;;;;;4952529;28;20690;-81
2023/09/07 08:53:08;;;;;;;9.65;6.45;;;25.90;60.70;;;;;;4954467;28;20039;-82
2023/09/07 08:55:34;;;;;;;8.32;6.30;;;26.00;61.70;;;;;;4941965;28;20835;-82
2023/09/07 08:58:00;;;;;;;10.80;6.65;;;26.30;61.60;;;;;;4958403;28;20074;-78
2023/09/07 09:00:25;;;;;;;10.30;8.43;;;26.60;61.80;;;;;;4949303;28;20023;-82
2023/09/07 09:02:54;;;;;;;9.65;6.88;;;26.70;59.80;;;;;;4950211;28;20042;-82
2023/09/07 09:05:20;;;;;;;10.85;7.32;;;26.80;59.10;;;;;;4957536;28;20065;-83
2023/09/07 09:07:45;;;;;;;10.15;6.60;;;27.00;59.70;;;;;;4953767;28;20038;-80
2023/09/07 09:10:11;;;;;;;11.45;7.60;;;27.00;59.60;;;;;;4953316;28;20026;-80
2023/09/07 09:12:45;;;;;;;10.00;6.95;;;27.00;58.20;;;;;;4951883;28;20070;-80
2023/09/07 09:15:11;;;;;;;10.98;7.38;;;27.10;59.60;;;;;;4952132;28;20057;-79
2023/09/07 09:17:37;;;;;;;11.98;7.00;;;27.20;58.10;;;;;;4952275;28;20050;-81
2023/09/07 09:20:05;;;;;;;11.23;7.05;;;27.20;59.10;;;;;;4945310;28;20035;-80
2023/09/07 09:22:31;;;;;;;9.27;7.35;;;27.50;58.70;;;;;;4953832;28;20403;-81
2023/09/07 09:24:56;;;;;;;9.52;6.72;;;27.60;57.60;;;;;;4950331;28;20027;-79
2023/09/07 09:27:22;;;;;;;10.02;6.32;;;27.70;58.30;;;;;;4949629;28;20133;-79
2023/09/07 09:29:50;;;;;;;12.07;7.18;;;27.90;58.40;;;;;;4955707;28;20386;-76
2023/09/07 09:32:16;;;;;;;10.45;7.60;;;27.90;56.00;;;;;;4961497;28;20038;-78
2023/09/07 09:34:43;;;;;;;9.90;6.45;;;27.70;57.60;;;;;;4956776;28;20026;-80
2023/09/07 09:37:14;;;;;;;10.93;6.80;;;27.80;58.70;;;;;;4960272;28;20039;-77
2023/09/07 09:39:41;;;;;;;8.77;5.93;;;28.00;57.00;;;;;;4955679;28;20031;-78
2023/09/07 09:42:08;;;;;;;9.02;6.53;;;28.20;56.40;;;;;;4961926;28;20096;-79
2023/09/07 09:44:36;;;;;;;8.90;5.70;;;28.30;55.60;;;;;;4963019;28;20027;-78
2023/09/07 09:47:03;;;;;;;9.25;5.57;;;28.40;54.60;;;;;;4963930;28;20117;-80
2023/09/07 09:49:29;;;;;;;9.57;5.93;;;28.40;52.80;;;;;;4966288;28;20084;-78
2023/09/07 09:51:58;;;;;;;7.82;5.28;;;28.40;53.50;;;;;;4960299;28;20085;-79
2023/09/07 09:54:26;;;;;;;8.13;5.75;;;28.50;54.00;;;;;;4962437;28;20031;-78
2023/09/07 09:56:51;;;;;;;7.57;5.35;;;28.60;54.10;;;;;;4961163;28;20394;-84
2023/09/07 09:59:18;;;;;;;7.88;5.03;;;28.70;54.10;;;;;;4956629;28;20057;-79
2023/09/07 10:01:45;;;;;;;8.00;5.28;;;29.00;53.70;;;;;;4958039;28;20058;-80
2023/09/07 10:04:16;;;;;;;9.27;5.32;;;29.00;53.10;;;;;;4961069;28;20189;-80
2023/09/07 10:06:55;;;;;;;7.68;4.93;;;28.80;52.40;;;;;;4956796;28;20537;-79
2023/09/07 10:09:21;;;;;;;9.02;5.45;;;28.90;52.40;;;;;;4960177;28;20038;-80
2023/09/07 10:11:56;;;;;;;7.00;4.90;;;28.80;51.90;;;;;;4955602;28;20636;-82
2023/09/07 10:14:21;;;;;;;7.20;4.63;;;29.00;52.50;;;;;;4951852;28;20126;-78
2023/09/07 10:16:53;;;;;;;8.07;4.57;;;28.90;51.10;;;;;;4952771;28;20517;-78
2023/09/07 10:19:20;;;;;;;8.82;4.72;;;29.00;51.70;;;;;;4967095;28;20058;-78
2023/09/07 10:21:46;;;;;;;6.63;4.32;;;29.00;50.60;;;;;;4951632;28;20030;-81
2023/09/07 10:24:22;;;;;;;8.25;4.47;;;29.10;50.70;;;;;;4934750;28;20055;-78
2023/09/07 10:26:56;;;;;;;8.18;4.30;;;29.20;47.70;;;;;;4938836;28;20093;-78
2023/09/07 10:29:23;;;;;;;8.13;4.78;;;29.10;48.90;;;;;;4936417;28;20019;-77
2023/09/07 10:31:52;;;;;;;8.00;4.20;;;29.20;49.30;;;;;;4933530;28;20059;-80
2023/09/07 10:34:17;;;;;;;8.80;4.70;;;29.40;47.60;;;;;;4950897;28;20046;-79
2023/09/07 10:36:44;;;;;;;8.02;4.55;;;29.30;47.70;;;;;;4951763;28;20031;-78
2023/09/07 10:39:12;;;;;;;8.50;4.53;;;29.50;48.20;;;;;;4950513;28;20037;-81
2023/09/07 10:41:45;;;;;;;11.40;5.03;;;29.50;47.50;;;;;;4952634;28;20027;-80
2023/09/07 10:44:12;;;;;;;8.25;4.82;;;29.50;48.30;;;;;;4951022;28;20247;-81
2023/09/07 10:46:39;;;;;;;9.30;4.72;;;29.40;47.90;;;;;;4947070;28;20019;-84
2023/09/07 10:49:08;;;;;;;9.13;4.80;;;29.40;49.90;;;;;;4950084;28;20027;-78
2023/09/07 10:51:40;;;;;;;7.13;4.75;;;29.60;49.50;;;;;;4948988;28;20662;-77
2023/09/07 10:54:15;;;;;;;7.90;4.50;;;29.80;49.00;;;;;;4935850;28;20031;-78
2023/09/07 10:56:43;;;;;;;8.00;5.38;;;30.00;47.80;;;;;;4941880;28;20626;-77
2023/09/07 10:59:09;;;;;;;7.78;4.80;;;30.00;47.10;;;;;;4946710;28;20050;-77
2023/09/07 11:01:34;;;;;;;7.82;4.68;;;30.10;47.40;;;;;;4933454;28;20035;-78
2023/09/07 11:04:00;;;;;;;8.63;4.60;;;30.00;47.30;;;;;;4954842;28;20673;-78
2023/09/07 11:06:26;;;;;;;9.07;4.50;;;30.00;47.90;;;;;;4955857;28;20096;-79
2023/09/07 11:08:52;;;;;;;7.72;4.47;;;29.80;47.60;;;;;;5035573;28;20422;-79
2023/09/07 11:11:18;;;;;;;6.63;4.53;;;29.70;48.00;;;;;;5032617;28;20447;-78
2023/09/07 11:13:43;;;;;;;7.97;4.53;;;29.90;47.40;;;;;;4959971;28;20465;-80
2023/09/07 11:16:10;;;;;;;7.10;4.30;;;30.00;47.80;;;;;;4942195;28;20023;-79
2023/09/07 11:18:36;;;;;;;8.18;4.80;;;30.20;47.50;;;;;;4946658;28;20498;-79
2023/09/07 11:21:07;;;;;;;8.68;4.93;;;30.30;47.50;;;;;;4937645;28;20864;-79
2023/09/07 11:23:37;;;;;;;9.90;5.05;;;30.30;48.40;;;;;;4931229;28;20122;-78
2023/09/07 11:26:05;;;;;;;8.52;5.00;;;30.20;48.90;;;;;;4925051;28;20019;-78
2023/09/07 11:28:31;;;;;;;7.75;4.65;;;30.40;48.30;;;;;;4937094;28;20054;-78
2023/09/07 11:30:58;;;;;;;9.88;4.82;;;30.30;47.50;;;;;;4956971;28;20655;-78
2023/09/07 11:33:25;;;;;;;8.80;5.05;;;30.40;46.50;;;;;;4929779;28;20112;-78
2023/09/07 11:35:54;;;;;;;7.93;4.57;;;30.40;47.50;;;;;;4930270;28;20023;-78
2023/09/07 11:38:20;;;;;;;7.10;4.82;;;30.60;47.40;;;;;;4942094;28;20036;-78
2023/09/07 11:40:46;;;;;;;9.25;4.82;;;30.60;46.80;;;;;;4946472;28;20033;-78
2023/09/07 11:43:12;;;;;;;7.03;4.20;;;30.60;47.40;;;;;;4946337;28;20105;-79
2023/09/07 11:45:39;;;;;;;9.05;5.43;;;30.50;47.00;;;;;;4945261;28;20038;-81
2023/09/07 11:48:05;;;;;;;6.97;4.60;;;30.50;45.90;;;;;;4960912;28;21153;-79
2023/09/07 11:50:32;;;;;;;8.50;5.15;;;30.60;46.20;;;;;;4954453;28;20693;-78
2023/09/07 11:52:57;;;;;;;8.30;4.88;;;30.70;46.50;;;;;;4957760;28;20552;-79
2023/09/07 11:55:23;;;;;;;8.05;5.03;;;30.90;46.40;;;;;;4961936;28;20026;-78
2023/09/07 11:57:49;;;;;;;8.63;4.80;;;31.00;45.90;;;;;;4960717;28;20034;-78
2023/09/07 12:00:15;;;;;;;7.82;4.60;;;30.80;46.20;;;;;;4962735;28;20027;-79
2023/09/07 12:02:41;;;;;;;11.38;5.20;;;30.80;46.20;;;;;;4963028;28;20034;-78
2023/09/07 12:05:14;;;;;;;8.50;4.88;;;30.70;46.90;;;;;;4952143;28;20696;-78
2023/09/07 12:07:39;;;;;;;7.53;4.43;;;30.70;47.00;;;;;;4956190;28;20126;-77
2023/09/07 12:10:05;;;;;;;7.88;4.50;;;31.00;46.50;;;;;;4960990;28;20031;-75
2023/09/07 12:12:31;;;;;;;7.70;4.45;;;31.00;44.70;;;;;;4957993;28;20043;-77
2023/09/07 12:14:57;;;;;;;7.47;5.10;;;30.70;44.90;;;;;;4960455;28;20459;-78
2023/09/07 12:17:23;;;;;;;7.90;4.53;;;30.80;46.60;;;;;;4958596;28;20035;-78
2023/09/07 12:19:50;;;;;;;12.10;5.10;;;31.00;45.70;;;;;;4958121;28;20039;-75
2023/09/07 12:22:16;;;;;;;7.82;4.95;;;31.10;45.50;;;;;;4962350;28;20046;-78
2023/09/07 12:24:42;;;;;;;8.38;5.25;;;31.10;45.70;;;;;;4957353;28;20042;-75
2023/09/07 12:27:11;;;;;;;8.15;4.78;;;31.00;47.00;;;;;;4965382;28;20062;-78
2023/09/07 12:29:37;;;;;;;9.20;4.57;;;31.00;45.80;;;;;;4957482;28;20110;-80